sensor_id;sensor_type;location;lat;lon;timestamp;pressure;altitude;pressure_sealevel;temperature;humidity
63739;BME280;68816;45.558;10.070;2023-06-22T00:01:10;100203.94;;;27.87;46.34
63739;BME280;68816;45.558;10.070;2023-06-22T00:03:35;100195.97;;;28.01;46.32
63739;BME280;68816;45.558;10.070;2023-06-22T00:06:01;100198.53;;;27.94;46.46
63739;BME280;68816;45.558;10.070;2023-06-22T00:08:26;100193.13;;;27.80;47.08
63739;BME280;68816;45.558;10.070;2023-06-22T00:10:52;100196.28;;;27.66;47.56
63739;BME280;68816;45.558;10.070;2023-06-22T00:13:17;100200.53;;;27.93;46.33
63739;BME280;68816;45.558;10.070;2023-06-22T00:15:43;100207.34;;;27.80;46.65
63739;BME280;68816;45.558;10.070;2023-06-22T00:18:10;100200.53;;;27.93;46.63
63739;BME280;68816;45.558;10.070;2023-06-22T00:20:36;100198.19;;;27.95;46.62
63739;BME280;68816;45.558;10.070;2023-06-22T00:23:04;100199.03;;;27.75;47.00
63739;BME280;68816;45.558;10.070;2023-06-22T00:25:39;100201.38;;;27.73;47.08
63739;BME280;68816;45.558;10.070;2023-06-22T00:28:05;100203.03;;;27.74;47.28
63739;BME280;68816;45.558;10.070;2023-06-22T00:30:31;100195.97;;;27.80;47.56
63739;BME280;68816;45.558;10.070;2023-06-22T00:32:57;100196.31;;;27.99;47.33
63739;BME280;68816;45.558;10.070;2023-06-22T00:35:23;100189.66;;;27.95;47.09
63739;BME280;68816;45.558;10.070;2023-06-22T00:37:54;100191.75;;;27.86;47.62
63739;BME280;68816;45.558;10.070;2023-06-22T00:40:28;100189.84;;;27.90;47.38
63739;BME280;68816;45.558;10.070;2023-06-22T00:42:54;100185.31;;;27.77;47.48
63739;BME280;68816;45.558;10.070;2023-06-22T00:45:20;100188.00;;;27.73;48.24
63739;BME280;68816;45.558;10.070;2023-06-22T00:47:49;100190.16;;;27.76;47.39
63739;BME280;68816;45.558;10.070;2023-06-22T00:50:19;100188.91;;;27.86;47.18
63739;BME280;68816;45.558;10.070;2023-06-22T00:52:51;100196.41;;;27.70;47.35
63739;BME280;68816;45.558;10.070;2023-06-22T00:55:18;100193.06;;;27.68;47.78
63739;BME280;68816;45.558;10.070;2023-06-22T00:57:46;100189.06;;;27.69;47.74
63739;BME280;68816;45.558;10.070;2023-06-22T01:00:12;100186.69;;;27.71;48.15
63739;BME280;68816;45.558;10.070;2023-06-22T01:02:44;100191.34;;;27.75;48.15
63739;BME280;68816;45.558;10.070;2023-06-22T01:05:15;100204.84;;;27.78;47.19
63739;BME280;68816;45.558;10.070;2023-06-22T01:07:47;100203.88;;;27.74;47.67
63739;BME280;68816;45.558;10.070;2023-06-22T01:10:27;100197.97;;;27.79;47.77
63739;BME280;68816;45.558;10.070;2023-06-22T01:13:01;100196.94;;;27.84;48.13
63739;BME280;68816;45.558;10.070;2023-06-22T01:15:35;100195.44;;;27.66;48.37
63739;BME280;68816;45.558;10.070;2023-06-22T01:18:04;100193.69;;;27.73;48.52
63739;BME280;68816;45.558;10.070;2023-06-22T01:20:30;100196.53;;;27.73;48.49
63739;BME280;68816;45.558;10.070;2023-06-22T01:23:07;100190.38;;;27.71;49.16
63739;BME280;68816;45.558;10.070;2023-06-22T01:25:46;100195.84;;;27.76;49.64
63739;BME280;68816;45.558;10.070;2023-06-22T01:28:48;100198.47;;;27.82;49.11
63739;BME280;68816;45.558;10.070;2023-06-22T01:31:16;100198.53;;;27.73;49.44
63739;BME280;68816;45.558;10.070;2023-06-22T01:33:45;100208.25;;;27.72;47.72
63739;BME280;68816;45.558;10.070;2023-06-22T01:36:13;100216.09;;;27.75;48.05
63739;BME280;68816;45.558;10.070;2023-06-22T01:38:39;100218.34;;;27.61;49.25
63739;BME280;68816;45.558;10.070;2023-06-22T01:41:06;100215.34;;;27.36;49.08
63739;BME280;68816;45.558;10.070;2023-06-22T01:43:31;100205.56;;;27.25;49.38
63739;BME280;68816;45.558;10.070;2023-06-22T01:46:00;100207.59;;;27.16;49.15
63739;BME280;68816;45.558;10.070;2023-06-22T01:48:26;100200.06;;;27.20;49.26
63739;BME280;68816;45.558;10.070;2023-06-22T01:50:53;100200.56;;;27.22;49.98
63739;BME280;68816;45.558;10.070;2023-06-22T01:53:23;100190.97;;;27.06;50.03
63739;BME280;68816;45.558;10.070;2023-06-22T01:55:49;100197.59;;;27.19;50.49
63739;BME280;68816;45.558;10.070;2023-06-22T01:58:15;100191.28;;;27.13;50.00
63739;BME280;68816;45.558;10.070;2023-06-22T02:00:45;100195.47;;;27.07;49.93
63739;BME280;68816;45.558;10.070;2023-06-22T02:03:14;100196.16;;;27.04;50.06
63739;BME280;68816;45.558;10.070;2023-06-22T02:05:56;100190.88;;;27.23;49.53
63739;BME280;68816;45.558;10.070;2023-06-22T02:08:30;100192.25;;;27.17;49.86
63739;BME280;68816;45.558;10.070;2023-06-22T02:10:57;100185.78;;;27.08;49.90
63739;BME280;68816;45.558;10.070;2023-06-22T02:13:25;100197.63;;;27.10;50.28
63739;BME280;68816;45.558;10.070;2023-06-22T02:15:51;100197.16;;;27.08;50.04
63739;BME280;68816;45.558;10.070;2023-06-22T02:18:16;100193.75;;;27.15;50.20
63739;BME280;68816;45.558;10.070;2023-06-22T02:20:42;100200.88;;;27.21;49.93
63739;BME280;68816;45.558;10.070;2023-06-22T02:23:08;100197.94;;;27.09;50.80
63739;BME280;68816;45.558;10.070;2023-06-22T02:25:34;100205.72;;;27.20;50.98
63739;BME280;68816;45.558;10.070;2023-06-22T02:28:01;100191.19;;;27.22;50.80
63739;BME280;68816;45.558;10.070;2023-06-22T02:30:26;100203.69;;;27.29;50.89
63739;BME280;68816;45.558;10.070;2023-06-22T02:32:52;100202.72;;;27.25;51.10
63739;BME280;68816;45.558;10.070;2023-06-22T02:35:25;100204.47;;;27.09;51.36
63739;BME280;68816;45.558;10.070;2023-06-22T02:37:51;100202.56;;;27.22;51.70
63739;BME280;68816;45.558;10.070;2023-06-22T02:40:17;100212.13;;;27.17;52.03
63739;BME280;68816;45.558;10.070;2023-06-22T02:42:42;100212.31;;;27.12;51.69
63739;BME280;68816;45.558;10.070;2023-06-22T02:45:08;100208.50;;;27.08;51.82
63739;BME280;68816;45.558;10.070;2023-06-22T02:47:34;100212.50;;;27.07;52.29
63739;BME280;68816;45.558;10.070;2023-06-22T02:49:59;100211.81;;;27.10;52.08
63739;BME280;68816;45.558;10.070;2023-06-22T02:52:26;100214.63;;;27.19;52.19
63739;BME280;68816;45.558;10.070;2023-06-22T02:54:51;100212.34;;;27.04;52.05
63739;BME280;68816;45.558;10.070;2023-06-22T02:57:17;100214.53;;;27.07;52.37
63739;BME280;68816;45.558;10.070;2023-06-22T02:59:43;100205.84;;;27.03;51.91
63739;BME280;68816;45.558;10.070;2023-06-22T03:02:08;100206.31;;;27.14;51.73
63739;BME280;68816;45.558;10.070;2023-06-22T03:04:35;100210.31;;;27.13;51.43
63739;BME280;68816;45.558;10.070;2023-06-22T03:07:01;100209.81;;;27.11;50.86
63739;BME280;68816;45.558;10.070;2023-06-22T03:09:27;100204.94;;;27.20;50.98
63739;BME280;68816;45.558;10.070;2023-06-22T03:11:53;100207.47;;;27.13;51.09
63739;BME280;68816;45.558;10.070;2023-06-22T03:14:19;100209.81;;;27.11;51.16
63739;BME280;68816;45.558;10.070;2023-06-22T03:16:44;100216.00;;;27.13;51.20
63739;BME280;68816;45.558;10.070;2023-06-22T03:19:10;100207.19;;;27.26;50.60
63739;BME280;68816;45.558;10.070;2023-06-22T03:21:37;100209.22;;;27.26;49.90
63739;BME280;68816;45.558;10.070;2023-06-22T03:24:04;100204.19;;;27.31;49.99
63739;BME280;68816;45.558;10.070;2023-06-22T03:26:30;100209.06;;;27.22;50.45
63739;BME280;68816;45.558;10.070;2023-06-22T03:28:55;100198.41;;;27.19;50.31
63739;BME280;68816;45.558;10.070;2023-06-22T03:31:21;100210.16;;;27.09;49.76
63739;BME280;68816;45.558;10.070;2023-06-22T03:33:50;100208.19;;;27.01;50.19
63739;BME280;68816;45.558;10.070;2023-06-22T03:36:16;100192.38;;;26.91;50.38
63739;BME280;68816;45.558;10.070;2023-06-22T03:38:46;100206.72;;;26.95;50.64
63739;BME280;68816;45.558;10.070;2023-06-22T03:41:11;100203.59;;;26.88;50.85
63739;BME280;68816;45.558;10.070;2023-06-22T03:43:37;100209.25;;;26.88;50.79
63739;BME280;68816;45.558;10.070;2023-06-22T03:46:02;100210.75;;;26.94;49.90
63739;BME280;68816;45.558;10.070;2023-06-22T03:48:28;100209.25;;;26.88;50.47
63739;BME280;68816;45.558;10.070;2023-06-22T03:50:53;100210.94;;;26.89;50.39
63739;BME280;68816;45.558;10.070;2023-06-22T03:53:19;100208.09;;;26.89;50.48
63739;BME280;68816;45.558;10.070;2023-06-22T03:55:51;100221.59;;;26.92;50.77
63739;BME280;68816;45.558;10.070;2023-06-22T03:58:18;100212.41;;;26.95;50.71
63739;BME280;68816;45.558;10.070;2023-06-22T04:00:53;100212.25;;;26.83;50.30
63739;BME280;68816;45.558;10.070;2023-06-22T04:03:19;100220.44;;;26.84;51.24
63739;BME280;68816;45.558;10.070;2023-06-22T04:05:44;100215.56;;;27.02;49.55
63739;BME280;68816;45.558;10.070;2023-06-22T04:08:13;100221.22;;;27.02;50.17
63739;BME280;68816;45.558;10.070;2023-06-22T04:10:38;100219.66;;;27.13;49.21
63739;BME280;68816;45.558;10.070;2023-06-22T04:13:04;100217.66;;;27.14;49.63
63739;BME280;68816;45.558;10.070;2023-06-22T04:15:29;100218.75;;;27.21;50.52
63739;BME280;68816;45.558;10.070;2023-06-22T04:17:56;100221.13;;;27.19;50.53
63739;BME280;68816;45.558;10.070;2023-06-22T04:20:22;100219.06;;;27.28;49.90
63739;BME280;68816;45.558;10.070;2023-06-22T04:22:47;100214.56;;;27.27;50.45
63739;BME280;68816;45.558;10.070;2023-06-22T04:25:13;100212.00;;;27.34;49.93
63739;BME280;68816;45.558;10.070;2023-06-22T04:27:39;100207.69;;;27.28;50.25
63739;BME280;68816;45.558;10.070;2023-06-22T04:30:06;100211.31;;;27.37;48.66
63739;BME280;68816;45.558;10.070;2023-06-22T04:32:33;100199.06;;;27.46;48.59
63739;BME280;68816;45.558;10.070;2023-06-22T04:35:02;100204.84;;;27.58;48.35
63739;BME280;68816;45.558;10.070;2023-06-22T04:37:27;100194.19;;;27.55;48.24
63739;BME280;68816;45.558;10.070;2023-06-22T04:39:53;100200.97;;;27.62;47.93
63739;BME280;68816;45.558;10.070;2023-06-22T04:42:18;100202.09;;;27.70;47.64
63739;BME280;68816;45.558;10.070;2023-06-22T04:44:44;100204.44;;;27.68;48.85
63739;BME280;68816;45.558;10.070;2023-06-22T04:47:09;100210.00;;;27.64;48.11
63739;BME280;68816;45.558;10.070;2023-06-22T04:49:36;100206.72;;;27.74;48.50
63739;BME280;68816;45.558;10.070;2023-06-22T04:52:04;100196.53;;;27.73;49.30
63739;BME280;68816;45.558;10.070;2023-06-22T04:54:31;100212.59;;;27.90;48.48
63739;BME280;68816;45.558;10.070;2023-06-22T04:57:02;100216.38;;;27.82;48.17
63739;BME280;68816;45.558;10.070;2023-06-22T04:59:29;100217.47;;;27.90;48.96
63739;BME280;68816;45.558;10.070;2023-06-22T05:01:56;100211.97;;;27.85;48.04
63739;BME280;68816;45.558;10.070;2023-06-22T05:04:22;100210.03;;;27.97;47.88
63739;BME280;68816;45.558;10.070;2023-06-22T05:06:51;100194.19;;;28.08;48.57
63739;BME280;68816;45.558;10.070;2023-06-22T05:09:17;100202.53;;;28.13;47.44
63739;BME280;68816;45.558;10.070;2023-06-22T05:11:44;100193.81;;;28.18;47.56
63739;BME280;68816;45.558;10.070;2023-06-22T05:14:10;100195.50;;;28.32;48.40
63739;BME280;68816;45.558;10.070;2023-06-22T05:16:36;100190.56;;;28.41;47.63
63739;BME280;68816;45.558;10.070;2023-06-22T05:19:02;100195.53;;;28.44;48.02
63739;BME280;68816;45.558;10.070;2023-06-22T05:21:29;100195.31;;;28.49;45.91
63739;BME280;68816;45.558;10.070;2023-06-22T05:23:55;100194.00;;;28.46;45.32
63739;BME280;68816;45.558;10.070;2023-06-22T05:26:26;100201.44;;;28.39;46.28
63739;BME280;68816;45.558;10.070;2023-06-22T05:28:52;100201.22;;;28.44;46.27
63739;BME280;68816;45.558;10.070;2023-06-22T05:31:18;100203.16;;;28.52;45.61
63739;BME280;68816;45.558;10.070;2023-06-22T05:33:49;100207.31;;;28.67;45.12
63739;BME280;68816;45.558;10.070;2023-06-22T05:36:15;100215.25;;;28.61;43.60
63739;BME280;68816;45.558;10.070;2023-06-22T05:38:41;100212.53;;;28.52;45.48
63739;BME280;68816;45.558;10.070;2023-06-22T05:41:07;100214.38;;;28.48;47.01
63739;BME280;68816;45.558;10.070;2023-06-22T05:43:33;100206.84;;;28.65;46.73
63739;BME280;68816;45.558;10.070;2023-06-22T05:45:59;100209.88;;;28.80;44.47
63739;BME280;68816;45.558;10.070;2023-06-22T05:48:25;100207.38;;;28.91;44.39
63739;BME280;68816;45.558;10.070;2023-06-22T05:50:51;100209.28;;;28.99;45.08
63739;BME280;68816;45.558;10.070;2023-06-22T05:53:16;100208.56;;;29.02;45.35
63739;BME280;68816;45.558;10.070;2023-06-22T05:55:42;100215.44;;;29.13;46.16
63739;BME280;68816;45.558;10.070;2023-06-22T05:58:08;100203.00;;;29.06;44.78
63739;BME280;68816;45.558;10.070;2023-06-22T06:00:33;100214.41;;;29.18;44.27
63739;BME280;68816;45.558;10.070;2023-06-22T06:02:59;100196.81;;;29.16;43.20
63739;BME280;68816;45.558;10.070;2023-06-22T06:05:32;100193.25;;;29.19;43.17
63739;BME280;68816;45.558;10.070;2023-06-22T06:07:58;100182.56;;;29.28;44.51
63739;BME280;68816;45.558;10.070;2023-06-22T06:10:24;100173.19;;;29.39;43.42
63739;BME280;68816;45.558;10.070;2023-06-22T06:12:50;100168.44;;;29.44;43.62
63739;BME280;68816;45.558;10.070;2023-06-22T06:15:15;100172.84;;;29.41;42.60
63739;BME280;68816;45.558;10.070;2023-06-22T06:17:51;100175.56;;;29.37;42.62
63739;BME280;68816;45.558;10.070;2023-06-22T06:20:19;100184.19;;;29.53;42.11
63739;BME280;68816;45.558;10.070;2023-06-22T06:22:45;100193.56;;;29.66;42.12
63739;BME280;68816;45.558;10.070;2023-06-22T06:25:12;100200.94;;;29.30;42.44
63739;BME280;68816;45.558;10.070;2023-06-22T06:27:45;100191.47;;;29.38;41.86
63739;BME280;68816;45.558;10.070;2023-06-22T06:30:12;100203.44;;;29.32;42.48
63739;BME280;68816;45.558;10.070;2023-06-22T06:32:37;100191.69;;;29.58;41.26
63739;BME280;68816;45.558;10.070;2023-06-22T06:35:05;100198.91;;;29.67;41.72
63739;BME280;68816;45.558;10.070;2023-06-22T06:37:31;100200.56;;;29.68;40.99
63739;BME280;68816;45.558;10.070;2023-06-22T06:39:56;100217.38;;;29.86;40.72
63739;BME280;68816;45.558;10.070;2023-06-22T06:42:22;100225.00;;;29.82;43.21
63739;BME280;68816;45.558;10.070;2023-06-22T06:44:49;100221.13;;;29.62;42.28
63739;BME280;68816;45.558;10.070;2023-06-22T06:47:15;100224.47;;;29.64;43.65
63739;BME280;68816;45.558;10.070;2023-06-22T06:49:42;100228.56;;;29.78;43.87
63739;BME280;68816;45.558;10.070;2023-06-22T06:52:08;100223.41;;;29.56;44.78
63739;BME280;68816;45.558;10.070;2023-06-22T06:54:33;100231.44;;;29.66;43.60
63739;BME280;68816;45.558;10.070;2023-06-22T06:56:59;100230.03;;;29.60;43.83
63739;BME280;68816;45.558;10.070;2023-06-22T06:59:24;100239.25;;;29.94;44.28
63739;BME280;68816;45.558;10.070;2023-06-22T07:01:49;100233.09;;;29.92;42.93
63739;BME280;68816;45.558;10.070;2023-06-22T07:04:15;100222.88;;;30.18;42.46
63739;BME280;68816;45.558;10.070;2023-06-22T07:06:40;100236.59;;;29.89;43.40
63739;BME280;68816;45.558;10.070;2023-06-22T07:09:07;100234.91;;;30.12;43.52
63739;BME280;68816;45.558;10.070;2023-06-22T07:11:33;100233.00;;;30.16;43.07
63739;BME280;68816;45.558;10.070;2023-06-22T07:13:58;100240.88;;;30.07;43.56
63739;BME280;68816;45.558;10.070;2023-06-22T07:16:25;100252.88;;;30.00;42.22
63739;BME280;68816;45.558;10.070;2023-06-22T07:18:53;100242.22;;;30.25;41.88
63739;BME280;68816;45.558;10.070;2023-06-22T07:21:18;100243.16;;;30.29;42.67
63739;BME280;68816;45.558;10.070;2023-06-22T07:23:44;100245.09;;;30.41;42.88
63739;BME280;68816;45.558;10.070;2023-06-22T07:26:09;100249.88;;;30.65;43.23
63739;BME280;68816;45.558;10.070;2023-06-22T07:28:34;100246.41;;;30.71;43.20
63739;BME280;68816;45.558;10.070;2023-06-22T07:31:03;100252.22;;;30.75;42.61
63739;BME280;68816;45.558;10.070;2023-06-22T07:33:31;100244.31;;;30.84;42.70
63739;BME280;68816;45.558;10.070;2023-06-22T07:35:57;100239.50;;;30.56;42.34
63739;BME280;68816;45.558;10.070;2023-06-22T07:38:22;100242.78;;;30.31;42.79
63739;BME280;68816;45.558;10.070;2023-06-22T07:40:48;100244.63;;;30.51;41.78
63739;BME280;68816;45.558;10.070;2023-06-22T07:43:13;100256.16;;;30.42;42.86
63739;BME280;68816;45.558;10.070;2023-06-22T07:45:39;100239.84;;;30.27;43.16
63739;BME280;68816;45.558;10.070;2023-06-22T07:48:09;100238.38;;;30.33;43.64
63739;BME280;68816;45.558;10.070;2023-06-22T07:50:34;100243.53;;;30.28;43.17
63739;BME280;68816;45.558;10.070;2023-06-22T07:52:59;100237.19;;;30.34;42.50
63739;BME280;68816;45.558;10.070;2023-06-22T07:55:25;100228.69;;;30.50;41.96
63739;BME280;68816;45.558;10.070;2023-06-22T07:57:50;100228.16;;;30.60;42.80
63739;BME280;68816;45.558;10.070;2023-06-22T08:00:17;100225.47;;;30.51;42.18
63739;BME280;68816;45.558;10.070;2023-06-22T08:02:45;100224.22;;;30.96;41.91
63739;BME280;68816;45.558;10.070;2023-06-22T08:05:11;100207.56;;;31.14;42.14
63739;BME280;68816;45.558;10.070;2023-06-22T08:07:38;100206.25;;;31.27;41.90
63739;BME280;68816;45.558;10.070;2023-06-22T08:10:04;100208.78;;;31.48;40.14
63739;BME280;68816;45.558;10.070;2023-06-22T08:12:30;100206.66;;;31.60;39.47
63739;BME280;68816;45.558;10.070;2023-06-22T08:14:56;100197.97;;;31.72;39.32
63739;BME280;68816;45.558;10.070;2023-06-22T08:17:23;100198.47;;;31.59;38.72
63739;BME280;68816;45.558;10.070;2023-06-22T08:19:49;100194.88;;;31.81;38.88
63739;BME280;68816;45.558;10.070;2023-06-22T08:22:16;100191.41;;;31.72;37.51
63739;BME280;68816;45.558;10.070;2023-06-22T08:24:41;100194.13;;;31.84;38.72
63739;BME280;68816;45.558;10.070;2023-06-22T08:27:07;100196.47;;;31.78;37.70
63739;BME280;68816;45.558;10.070;2023-06-22T08:29:38;100188.78;;;31.83;37.63
63739;BME280;68816;45.558;10.070;2023-06-22T08:32:04;100189.97;;;31.81;37.60
63739;BME280;68816;45.558;10.070;2023-06-22T08:34:30;100183.59;;;31.88;37.95
63739;BME280;68816;45.558;10.070;2023-06-22T08:36:56;100178.53;;;31.81;35.63
63739;BME280;68816;45.558;10.070;2023-06-22T08:39:21;100172.44;;;32.21;37.43
63739;BME280;68816;45.558;10.070;2023-06-22T08:41:48;100178.41;;;32.32;36.17
63739;BME280;68816;45.558;10.070;2023-06-22T08:44:13;100174.25;;;32.30;35.77
63739;BME280;68816;45.558;10.070;2023-06-22T08:46:39;100166.38;;;32.46;36.32
63739;BME280;68816;45.558;10.070;2023-06-22T08:49:06;100163.84;;;32.86;36.13
63739;BME280;68816;45.558;10.070;2023-06-22T08:51:32;100151.06;;;32.80;34.90
63739;BME280;68816;45.558;10.070;2023-06-22T08:53:57;100141.19;;;33.00;35.39
63739;BME280;68816;45.558;10.070;2023-06-22T08:56:23;100146.94;;;33.04;35.74
63739;BME280;68816;45.558;10.070;2023-06-22T08:58:48;100136.88;;;33.14;34.49
63739;BME280;68816;45.558;10.070;2023-06-22T09:01:14;100129.19;;;33.18;35.29
63739;BME280;68816;45.558;10.070;2023-06-22T09:03:41;100117.00;;;33.24;35.57
63739;BME280;68816;45.558;10.070;2023-06-22T09:06:07;100106.28;;;33.48;35.35
63739;BME280;68816;45.558;10.070;2023-06-22T09:08:35;100102.44;;;33.36;35.96
63739;BME280;68816;45.558;10.070;2023-06-22T09:11:00;100119.72;;;33.43;35.95
63739;BME280;68816;45.558;10.070;2023-06-22T09:13:26;100148.81;;;33.42;34.92
63739;BME280;68816;45.558;10.070;2023-06-22T09:15:51;100154.09;;;33.40;33.92
63739;BME280;68816;45.558;10.070;2023-06-22T09:18:17;100157.41;;;33.42;33.76
63739;BME280;68816;45.558;10.070;2023-06-22T09:20:43;100153.06;;;33.25;33.79
63739;BME280;68816;45.558;10.070;2023-06-22T09:23:08;100149.34;;;33.51;33.39
63739;BME280;68816;45.558;10.070;2023-06-22T09:25:34;100151.53;;;33.31;32.62
63739;BME280;68816;45.558;10.070;2023-06-22T09:27:59;100148.56;;;33.54;32.46
63739;BME280;68816;45.558;10.070;2023-06-22T09:30:25;100151.34;;;33.47;32.69
63739;BME280;68816;45.558;10.070;2023-06-22T09:32:50;100147.78;;;33.57;32.22
63739;BME280;68816;45.558;10.070;2023-06-22T09:35:16;100139.31;;;33.68;32.43
63739;BME280;68816;45.558;10.070;2023-06-22T09:37:41;100128.31;;;33.43;33.27
63739;BME280;68816;45.558;10.070;2023-06-22T09:40:07;100128.91;;;33.56;34.59
63739;BME280;68816;45.558;10.070;2023-06-22T09:42:35;100134.66;;;33.56;33.19
63739;BME280;68816;45.558;10.070;2023-06-22T09:45:00;100136.16;;;33.47;33.97
63739;BME280;68816;45.558;10.070;2023-06-22T09:47:27;100134.50;;;33.46;33.75
63739;BME280;68816;45.558;10.070;2023-06-22T09:49:52;100136.75;;;33.59;33.89
63739;BME280;68816;45.558;10.070;2023-06-22T09:52:20;100137.19;;;33.61;33.80
63739;BME280;68816;45.558;10.070;2023-06-22T09:54:45;100136.88;;;33.66;34.33
63739;BME280;68816;45.558;10.070;2023-06-22T09:57:11;100134.38;;;33.35;33.74
63739;BME280;68816;45.558;10.070;2023-06-22T09:59:36;100131.38;;;33.54;33.38
63739;BME280;68816;45.558;10.070;2023-06-22T10:02:02;100137.84;;;33.77;33.76
63739;BME280;68816;45.558;10.070;2023-06-22T10:04:27;100137.50;;;33.83;32.35
63739;BME280;68816;45.558;10.070;2023-06-22T10:06:53;100136.22;;;33.80;31.88
63739;BME280;68816;45.558;10.070;2023-06-22T10:09:18;100127.50;;;33.69;32.85
63739;BME280;68816;45.558;10.070;2023-06-22T10:11:44;100132.63;;;33.87;34.31
63739;BME280;68816;45.558;10.070;2023-06-22T10:14:09;100127.69;;;33.84;33.17
63739;BME280;68816;45.558;10.070;2023-06-22T10:16:36;100124.16;;;33.67;33.89
63739;BME280;68816;45.558;10.070;2023-06-22T10:19:02;100126.91;;;33.90;34.34
63739;BME280;68816;45.558;10.070;2023-06-22T10:21:27;100122.59;;;33.70;33.87
63739;BME280;68816;45.558;10.070;2023-06-22T10:23:54;100118.19;;;34.13;34.10
63739;BME280;68816;45.558;10.070;2023-06-22T10:26:20;100110.94;;;33.89;33.33
63739;BME280;68816;45.558;10.070;2023-06-22T10:28:46;100116.44;;;34.05;33.35
63739;BME280;68816;45.558;10.070;2023-06-22T10:31:11;100103.66;;;33.99;33.06
63739;BME280;68816;45.558;10.070;2023-06-22T10:33:37;100116.94;;;34.14;33.67
63739;BME280;68816;45.558;10.070;2023-06-22T10:36:02;100116.28;;;34.24;34.04
63739;BME280;68816;45.558;10.070;2023-06-22T10:38:28;100116.88;;;34.44;33.49
63739;BME280;68816;45.558;10.070;2023-06-22T10:40:53;100102.34;;;34.26;34.12
63739;BME280;68816;45.558;10.070;2023-06-22T10:43:19;100101.75;;;34.50;33.34
63739;BME280;68816;45.558;10.070;2023-06-22T10:45:45;100102.09;;;34.42;33.05
63739;BME280;68816;45.558;10.070;2023-06-22T10:48:10;100095.25;;;34.16;33.61
63739;BME280;68816;45.558;10.070;2023-06-22T10:50:36;100093.91;;;34.44;32.93
63739;BME280;68816;45.558;10.070;2023-06-22T10:53:01;100081.09;;;34.34;32.21
63739;BME280;68816;45.558;10.070;2023-06-22T10:55:26;100073.66;;;34.70;32.99
63739;BME280;68816;45.558;10.070;2023-06-22T10:57:52;100067.84;;;34.67;32.17
63739;BME280;68816;45.558;10.070;2023-06-22T11:00:17;100068.66;;;34.63;32.26
63739;BME280;68816;45.558;10.070;2023-06-22T11:02:43;100057.94;;;34.60;31.80
63739;BME280;68816;45.558;10.070;2023-06-22T11:05:09;100054.84;;;34.80;32.38
63739;BME280;68816;45.558;10.070;2023-06-22T11:07:35;100054.50;;;34.92;31.33
63739;BME280;68816;45.558;10.070;2023-06-22T11:10:00;100054.06;;;34.86;31.03
63739;BME280;68816;45.558;10.070;2023-06-22T11:12:26;100050.47;;;35.00;30.81
63739;BME280;68816;45.558;10.070;2023-06-22T11:14:51;100041.25;;;35.35;31.40
63739;BME280;68816;45.558;10.070;2023-06-22T11:17:17;100038.72;;;35.23;29.99
63739;BME280;68816;45.558;10.070;2023-06-22T11:19:44;100032.63;;;35.38;30.28
63739;BME280;68816;45.558;10.070;2023-06-22T11:22:10;100032.16;;;35.26;29.38
63739;BME280;68816;45.558;10.070;2023-06-22T11:24:35;100019.53;;;35.52;30.13
63739;BME280;68816;45.558;10.070;2023-06-22T11:27:00;100021.72;;;35.76;29.58
63739;BME280;68816;45.558;10.070;2023-06-22T11:29:26;100011.03;;;35.80;29.78
63739;BME280;68816;45.558;10.070;2023-06-22T11:31:51;100007.78;;;36.13;29.09
63739;BME280;68816;45.558;10.070;2023-06-22T11:34:17;100000.34;;;36.05;29.59
63739;BME280;68816;45.558;10.070;2023-06-22T11:36:44;100005.72;;;36.14;30.59
63739;BME280;68816;45.558;10.070;2023-06-22T11:39:10;100007.78;;;36.13;29.68
63739;BME280;68816;45.558;10.070;2023-06-22T11:41:36;100001.16;;;36.06;28.77
63739;BME280;68816;45.558;10.070;2023-06-22T11:44:01;99985.56;;;35.93;28.81
63739;BME280;68816;45.558;10.070;2023-06-22T11:46:27;99977.34;;;36.23;28.98
63739;BME280;68816;45.558;10.070;2023-06-22T11:48:52;99984.78;;;36.63;28.74
63739;BME280;68816;45.558;10.070;2023-06-22T11:51:18;99986.41;;;36.71;28.54
63739;BME280;68816;45.558;10.070;2023-06-22T11:53:43;99973.97;;;37.02;28.81
63739;BME280;68816;45.558;10.070;2023-06-22T11:56:08;99988.81;;;37.01;28.44
63739;BME280;68816;45.558;10.070;2023-06-22T11:58:34;99995.03;;;36.92;28.82
63739;BME280;68816;45.558;10.070;2023-06-22T12:00:59;99980.22;;;36.62;29.65
63739;BME280;68816;45.558;10.070;2023-06-22T12:03:25;99980.25;;;36.69;29.67
63739;BME280;68816;45.558;10.070;2023-06-22T12:05:50;99964.97;;;36.58;28.53
63739;BME280;68816;45.558;10.070;2023-06-22T12:08:19;99971.59;;;36.73;28.75
63739;BME280;68816;45.558;10.070;2023-06-22T12:10:44;99967.44;;;36.77;27.78
63739;BME280;68816;45.558;10.070;2023-06-22T12:13:10;99966.94;;;37.18;29.62
63739;BME280;68816;45.558;10.070;2023-06-22T12:15:35;99954.59;;;37.14;27.50
63739;BME280;68816;45.558;10.070;2023-06-22T12:18:01;99947.56;;;37.18;25.71
63739;BME280;68816;45.558;10.070;2023-06-22T12:20:26;99956.56;;;37.38;27.89
63739;BME280;68816;45.558;10.070;2023-06-22T12:22:52;99948.25;;;37.47;26.87
63739;BME280;68816;45.558;10.070;2023-06-22T12:25:17;99946.44;;;37.74;28.94
63739;BME280;68816;45.558;10.070;2023-06-22T12:27:43;99948.06;;;37.82;27.73
63739;BME280;68816;45.558;10.070;2023-06-22T12:30:09;99953.72;;;38.00;28.13
63739;BME280;68816;45.558;10.070;2023-06-22T12:32:34;99950.13;;;37.86;26.36
63739;BME280;68816;45.558;10.070;2023-06-22T12:35:00;99953.22;;;38.12;27.05
63739;BME280;68816;45.558;10.070;2023-06-22T12:37:25;99959.78;;;38.20;27.09